sensor_id;sensor_type;location;lat;lon;timestamp;P1;durP1;ratioP1;P2;durP2;ratioP2
20417;SDS011;10368;51.436;6.774;2024-03-08T00:02:19;21.00;;;16.67;;
20417;SDS011;10368;51.436;6.774;2024-03-08T00:04:46;19.43;;;17.33;;
20417;SDS011;10368;51.436;6.774;2024-03-08T00:07:13;20.40;;;16.47;;
20417;SDS011;10368;51.436;6.774;2024-03-08T00:09:41;21.97;;;17.43;;
20417;SDS011;10368;51.436;6.774;2024-03-08T00:12:08;24.60;;;18.27;;
20417;SDS011;10368;51.436;6.774;2024-03-08T00:14:35;20.73;;;16.63;;
20417;SDS011;10368;51.436;6.774;2024-03-08T00:17:04;19.07;;;16.60;;
20417;SDS011;10368;51.436;6.774;2024-03-08T00:19:30;20.20;;;16.57;;
20417;SDS011;10368;51.436;6.774;2024-03-08T00:21:57;21.73;;;17.27;;
20417;SDS011;10368;51.436;6.774;2024-03-08T00:24:25;20.77;;;16.40;;
20417;SDS011;10368;51.436;6.774;2024-03-08T00:26:51;20.60;;;17.30;;
20417;SDS011;10368;51.436;6.774;2024-03-08T00:29:20;21.77;;;17.63;;
20417;SDS011;10368;51.436;6.774;2024-03-08T00:31:48;26.40;;;18.30;;
20417;SDS011;10368;51.436;6.774;2024-03-08T00:34:15;20.57;;;17.53;;
20417;SDS011;10368;51.436;6.774;2024-03-08T00:36:42;25.70;;;17.03;;
20417;SDS011;10368;51.436;6.774;2024-03-08T00:39:10;22.87;;;15.97;;
20417;SDS011;10368;51.436;6.774;2024-03-08T00:41:38;25.23;;;17.90;;
20417;SDS011;10368;51.436;6.774;2024-03-08T00:44:05;19.23;;;16.17;;
20417;SDS011;10368;51.436;6.774;2024-03-08T00:46:32;25.07;;;17.47;;
20417;SDS011;10368;51.436;6.774;2024-03-08T00:49:00;22.37;;;18.50;;
20417;SDS011;10368;51.436;6.774;2024-03-08T00:51:27;24.07;;;17.77;;
20417;SDS011;10368;51.436;6.774;2024-03-08T00:53:54;21.07;;;16.70;;
20417;SDS011;10368;51.436;6.774;2024-03-08T00:56:21;21.93;;;17.30;;
20417;SDS011;10368;51.436;6.774;2024-03-08T00:58:48;23.93;;;17.40;;
20417;SDS011;10368;51.436;6.774;2024-03-08T01:01:15;22.40;;;17.37;;
20417;SDS011;10368;51.436;6.774;2024-03-08T01:03:42;21.93;;;16.73;;
20417;SDS011;10368;51.436;6.774;2024-03-08T01:06:10;22.13;;;17.90;;
20417;SDS011;10368;51.436;6.774;2024-03-08T01:08:38;24.90;;;19.60;;
20417;SDS011;10368;51.436;6.774;2024-03-08T01:11:07;20.07;;;17.17;;
20417;SDS011;10368;51.436;6.774;2024-03-08T01:13:35;24.50;;;17.70;;
20417;SDS011;10368;51.436;6.774;2024-03-08T01:16:02;25.20;;;17.33;;
20417;SDS011;10368;51.436;6.774;2024-03-08T01:18:29;24.00;;;17.63;;
20417;SDS011;10368;51.436;6.774;2024-03-08T01:20:56;23.23;;;17.50;;
20417;SDS011;10368;51.436;6.774;2024-03-08T01:23:23;23.33;;;17.10;;
20417;SDS011;10368;51.436;6.774;2024-03-08T01:25:50;22.43;;;17.97;;
20417;SDS011;10368;51.436;6.774;2024-03-08T01:28:24;26.10;;;18.80;;
20417;SDS011;10368;51.436;6.774;2024-03-08T01:30:51;19.77;;;17.13;;
20417;SDS011;10368;51.436;6.774;2024-03-08T01:33:25;24.43;;;17.00;;
20417;SDS011;10368;51.436;6.774;2024-03-08T01:35:53;22.70;;;18.30;;
20417;SDS011;10368;51.436;6.774;2024-03-08T01:38:20;19.70;;;17.33;;
20417;SDS011;10368;51.436;6.774;2024-03-08T01:40:47;26.30;;;18.33;;
20417;SDS011;10368;51.436;6.774;2024-03-08T01:43:18;23.47;;;17.73;;
20417;SDS011;10368;51.436;6.774;2024-03-08T01:45:47;25.03;;;18.33;;
20417;SDS011;10368;51.436;6.774;2024-03-08T01:48:15;25.93;;;19.10;;
20417;SDS011;10368;51.436;6.774;2024-03-08T01:50:44;28.30;;;18.67;;
20417;SDS011;10368;51.436;6.774;2024-03-08T01:53:11;28.63;;;18.77;;
20417;SDS011;10368;51.436;6.774;2024-03-08T01:55:41;24.13;;;17.73;;
20417;SDS011;10368;51.436;6.774;2024-03-08T01:58:10;27.23;;;19.60;;
20417;SDS011;10368;51.436;6.774;2024-03-08T02:00:38;25.50;;;19.03;;
20417;SDS011;10368;51.436;6.774;2024-03-08T02:03:08;22.47;;;18.97;;
20417;SDS011;10368;51.436;6.774;2024-03-08T02:05:36;28.87;;;19.20;;
20417;SDS011;10368;51.436;6.774;2024-03-08T02:08:04;27.47;;;19.20;;
20417;SDS011;10368;51.436;6.774;2024-03-08T02:10:41;28.30;;;19.70;;
20417;SDS011;10368;51.436;6.774;2024-03-08T02:13:08;25.93;;;18.37;;
20417;SDS011;10368;51.436;6.774;2024-03-08T02:18:22;22.77;;;18.57;;
20417;SDS011;10368;51.436;6.774;2024-03-08T02:20:57;25.90;;;18.63;;
20417;SDS011;10368;51.436;6.774;2024-03-08T02:23:26;28.63;;;20.30;;
20417;SDS011;10368;51.436;6.774;2024-03-08T02:25:53;28.93;;;19.30;;
20417;SDS011;10368;51.436;6.774;2024-03-08T02:28:22;25.23;;;18.57;;
20417;SDS011;10368;51.436;6.774;2024-03-08T02:30:51;26.10;;;19.00;;
20417;SDS011;10368;51.436;6.774;2024-03-08T02:33:25;22.90;;;18.53;;
20417;SDS011;10368;51.436;6.774;2024-03-08T02:35:53;26.90;;;19.67;;
20417;SDS011;10368;51.436;6.774;2024-03-08T02:38:21;23.00;;;18.67;;
20417;SDS011;10368;51.436;6.774;2024-03-08T02:40:51;25.13;;;18.70;;
20417;SDS011;10368;51.436;6.774;2024-03-08T02:43:20;29.33;;;20.70;;
20417;SDS011;10368;51.436;6.774;2024-03-08T02:45:49;28.73;;;19.93;;
20417;SDS011;10368;51.436;6.774;2024-03-08T02:48:16;23.93;;;18.90;;
20417;SDS011;10368;51.436;6.774;2024-03-08T02:50:43;24.37;;;19.43;;
20417;SDS011;10368;51.436;6.774;2024-03-08T02:53:12;26.67;;;19.90;;
20417;SDS011;10368;51.436;6.774;2024-03-08T02:55:40;25.13;;;20.13;;
20417;SDS011;10368;51.436;6.774;2024-03-08T02:58:08;25.67;;;18.97;;
20417;SDS011;10368;51.436;6.774;2024-03-08T03:00:37;27.13;;;20.40;;
20417;SDS011;10368;51.436;6.774;2024-03-08T03:03:07;27.70;;;19.50;;
20417;SDS011;10368;51.436;6.774;2024-03-08T03:05:34;26.77;;;20.17;;
20417;SDS011;10368;51.436;6.774;2024-03-08T03:08:02;27.67;;;19.47;;
20417;SDS011;10368;51.436;6.774;2024-03-08T03:10:36;27.83;;;19.33;;
20417;SDS011;10368;51.436;6.774;2024-03-08T03:13:03;26.53;;;19.60;;
20417;SDS011;10368;51.436;6.774;2024-03-08T03:15:34;26.03;;;19.87;;
20417;SDS011;10368;51.436;6.774;2024-03-08T03:18:03;26.90;;;20.30;;
20417;SDS011;10368;51.436;6.774;2024-03-08T03:20:30;28.30;;;20.63;;
20417;SDS011;10368;51.436;6.774;2024-03-08T03:23:07;27.47;;;20.63;;
20417;SDS011;10368;51.436;6.774;2024-03-08T03:25:35;32.80;;;21.70;;
20417;SDS011;10368;51.436;6.774;2024-03-08T03:28:02;30.60;;;20.70;;
20417;SDS011;10368;51.436;6.774;2024-03-08T03:30:31;30.97;;;20.27;;
20417;SDS011;10368;51.436;6.774;2024-03-08T03:33:00;26.77;;;20.97;;
20417;SDS011;10368;51.436;6.774;2024-03-08T03:35:28;30.67;;;21.00;;
20417;SDS011;10368;51.436;6.774;2024-03-08T03:37:56;29.70;;;21.40;;
20417;SDS011;10368;51.436;6.774;2024-03-08T03:40:37;29.00;;;19.90;;
20417;SDS011;10368;51.436;6.774;2024-03-08T03:43:06;26.80;;;19.93;;
20417;SDS011;10368;51.436;6.774;2024-03-08T03:45:34;29.97;;;21.30;;
20417;SDS011;10368;51.436;6.774;2024-03-08T03:48:04;34.03;;;21.00;;
20417;SDS011;10368;51.436;6.774;2024-03-08T03:50:33;27.67;;;19.73;;
20417;SDS011;10368;51.436;6.774;2024-03-08T03:53:02;29.53;;;20.83;;
20417;SDS011;10368;51.436;6.774;2024-03-08T03:55:30;35.43;;;21.17;;
20417;SDS011;10368;51.436;6.774;2024-03-08T03:57:57;32.53;;;20.37;;
20417;SDS011;10368;51.436;6.774;2024-03-08T04:00:25;27.53;;;20.27;;
20417;SDS011;10368;51.436;6.774;2024-03-08T04:02:53;30.60;;;20.13;;
20417;SDS011;10368;51.436;6.774;2024-03-08T04:05:21;29.77;;;20.73;;
20417;SDS011;10368;51.436;6.774;2024-03-08T04:07:48;31.57;;;20.93;;
20417;SDS011;10368;51.436;6.774;2024-03-08T04:10:15;31.40;;;22.03;;
20417;SDS011;10368;51.436;6.774;2024-03-08T04:12:42;33.80;;;21.17;;
20417;SDS011;10368;51.436;6.774;2024-03-08T04:15:10;33.07;;;20.70;;
20417;SDS011;10368;51.436;6.774;2024-03-08T04:17:38;32.87;;;22.13;;
20417;SDS011;10368;51.436;6.774;2024-03-08T04:20:05;31.23;;;20.60;;
20417;SDS011;10368;51.436;6.774;2024-03-08T04:22:37;35.33;;;21.50;;
20417;SDS011;10368;51.436;6.774;2024-03-08T04:25:04;33.13;;;22.50;;
20417;SDS011;10368;51.436;6.774;2024-03-08T04:27:33;35.57;;;21.27;;
20417;SDS011;10368;51.436;6.774;2024-03-08T04:30:01;30.80;;;21.40;;
20417;SDS011;10368;51.436;6.774;2024-03-08T04:32:29;26.60;;;18.80;;
20417;SDS011;10368;51.436;6.774;2024-03-08T04:34:56;37.57;;;22.10;;
20417;SDS011;10368;51.436;6.774;2024-03-08T04:37:23;32.30;;;21.50;;
20417;SDS011;10368;51.436;6.774;2024-03-08T04:39:51;30.70;;;21.30;;
20417;SDS011;10368;51.436;6.774;2024-03-08T04:42:18;30.90;;;20.73;;
20417;SDS011;10368;51.436;6.774;2024-03-08T04:44:46;34.83;;;21.73;;
20417;SDS011;10368;51.436;6.774;2024-03-08T04:47:13;30.97;;;22.57;;
20417;SDS011;10368;51.436;6.774;2024-03-08T04:49:40;32.90;;;21.27;;
20417;SDS011;10368;51.436;6.774;2024-03-08T04:52:07;33.43;;;21.40;;
20417;SDS011;10368;51.436;6.774;2024-03-08T04:54:34;37.40;;;22.53;;
20417;SDS011;10368;51.436;6.774;2024-03-08T04:57:01;29.47;;;21.40;;
20417;SDS011;10368;51.436;6.774;2024-03-08T04:59:32;39.30;;;22.43;;
20417;SDS011;10368;51.436;6.774;2024-03-08T05:01:59;36.73;;;22.33;;
20417;SDS011;10368;51.436;6.774;2024-03-08T05:04:26;36.23;;;21.97;;
20417;SDS011;10368;51.436;6.774;2024-03-08T05:06:53;32.83;;;22.03;;
20417;SDS011;10368;51.436;6.774;2024-03-08T05:09:20;29.93;;;20.80;;
20417;SDS011;10368;51.436;6.774;2024-03-08T05:11:47;34.33;;;22.13;;
20417;SDS011;10368;51.436;6.774;2024-03-08T05:14:14;35.33;;;22.07;;
20417;SDS011;10368;51.436;6.774;2024-03-08T05:16:46;29.97;;;21.53;;
20417;SDS011;10368;51.436;6.774;2024-03-08T05:19:17;35.27;;;22.37;;
20417;SDS011;10368;51.436;6.774;2024-03-08T05:21:48;36.20;;;23.60;;
20417;SDS011;10368;51.436;6.774;2024-03-08T05:24:16;38.47;;;23.43;;
20417;SDS011;10368;51.436;6.774;2024-03-08T05:26:44;37.33;;;22.87;;
20417;SDS011;10368;51.436;6.774;2024-03-08T05:29:12;39.57;;;23.77;;
20417;SDS011;10368;51.436;6.774;2024-03-08T05:31:47;34.37;;;21.37;;
20417;SDS011;10368;51.436;6.774;2024-03-08T05:34:16;33.67;;;21.93;;
20417;SDS011;10368;51.436;6.774;2024-03-08T05:36:43;36.00;;;22.60;;
20417;SDS011;10368;51.436;6.774;2024-03-08T05:39:18;34.30;;;21.40;;
20417;SDS011;10368;51.436;6.774;2024-03-08T05:41:46;36.77;;;23.23;;
20417;SDS011;10368;51.436;6.774;2024-03-08T05:44:13;36.17;;;23.23;;
20417;SDS011;10368;51.436;6.774;2024-03-08T05:46:40;39.87;;;24.60;;
20417;SDS011;10368;51.436;6.774;2024-03-08T05:49:07;40.70;;;23.47;;
20417;SDS011;10368;51.436;6.774;2024-03-08T05:51:37;38.47;;;23.30;;
20417;SDS011;10368;51.436;6.774;2024-03-08T05:54:12;35.93;;;23.23;;
20417;SDS011;10368;51.436;6.774;2024-03-08T05:56:43;33.30;;;21.53;;
20417;SDS011;10368;51.436;6.774;2024-03-08T05:59:11;36.93;;;22.93;;
20417;SDS011;10368;51.436;6.774;2024-03-08T06:01:38;37.33;;;21.87;;
20417;SDS011;10368;51.436;6.774;2024-03-08T06:04:08;37.30;;;22.77;;
20417;SDS011;10368;51.436;6.774;2024-03-08T06:06:38;40.67;;;23.87;;
20417;SDS011;10368;51.436;6.774;2024-03-08T06:09:06;36.17;;;22.00;;
20417;SDS011;10368;51.436;6.774;2024-03-08T06:11:39;36.60;;;23.37;;
20417;SDS011;10368;51.436;6.774;2024-03-08T06:14:06;34.03;;;21.23;;
20417;SDS011;10368;51.436;6.774;2024-03-08T06:16:33;37.93;;;24.63;;
20417;SDS011;10368;51.436;6.774;2024-03-08T06:19:02;36.77;;;23.03;;
20417;SDS011;10368;51.436;6.774;2024-03-08T06:21:29;36.77;;;22.90;;
20417;SDS011;10368;51.436;6.774;2024-03-08T06:23:57;39.57;;;23.33;;
20417;SDS011;10368;51.436;6.774;2024-03-08T06:26:24;38.10;;;22.57;;
20417;SDS011;10368;51.436;6.774;2024-03-08T06:28:56;39.30;;;23.47;;
20417;SDS011;10368;51.436;6.774;2024-03-08T06:31:23;34.57;;;22.23;;
20417;SDS011;10368;51.436;6.774;2024-03-08T06:33:50;37.70;;;23.10;;
20417;SDS011;10368;51.436;6.774;2024-03-08T06:36:21;36.53;;;22.03;;
20417;SDS011;10368;51.436;6.774;2024-03-08T06:38:51;37.77;;;23.17;;
20417;SDS011;10368;51.436;6.774;2024-03-08T06:41:18;39.13;;;24.87;;
20417;SDS011;10368;51.436;6.774;2024-03-08T06:43:46;44.63;;;25.10;;
20417;SDS011;10368;51.436;6.774;2024-03-08T06:46:15;42.57;;;24.70;;
20417;SDS011;10368;51.436;6.774;2024-03-08T06:48:42;39.87;;;24.30;;
20417;SDS011;10368;51.436;6.774;2024-03-08T06:51:09;41.00;;;23.47;;
20417;SDS011;10368;51.436;6.774;2024-03-08T06:53:38;38.70;;;25.23;;
20417;SDS011;10368;51.436;6.774;2024-03-08T06:56:05;36.60;;;23.27;;
20417;SDS011;10368;51.436;6.774;2024-03-08T06:58:34;42.47;;;24.03;;
20417;SDS011;10368;51.436;6.774;2024-03-08T07:01:01;38.93;;;22.93;;
20417;SDS011;10368;51.436;6.774;2024-03-08T07:03:30;44.50;;;24.93;;
20417;SDS011;10368;51.436;6.774;2024-03-08T07:05:59;48.10;;;26.13;;
20417;SDS011;10368;51.436;6.774;2024-03-08T07:08:29;42.10;;;24.57;;
20417;SDS011;10368;51.436;6.774;2024-03-08T07:10:56;42.23;;;23.80;;
20417;SDS011;10368;51.436;6.774;2024-03-08T07:13:25;42.80;;;24.50;;
20417;SDS011;10368;51.436;6.774;2024-03-08T07:15:55;38.47;;;23.13;;
20417;SDS011;10368;51.436;6.774;2024-03-08T07:18:22;39.13;;;24.33;;
20417;SDS011;10368;51.436;6.774;2024-03-08T07:20:49;38.13;;;24.07;;
20417;SDS011;10368;51.436;6.774;2024-03-08T07:23:16;39.43;;;24.70;;
20417;SDS011;10368;51.436;6.774;2024-03-08T07:26:03;39.70;;;22.87;;
20417;SDS011;10368;51.436;6.774;2024-03-08T07:28:30;36.30;;;23.37;;
20417;SDS011;10368;51.436;6.774;2024-03-08T07:30:58;38.60;;;24.07;;
20417;SDS011;10368;51.436;6.774;2024-03-08T07:33:39;40.30;;;24.73;;
20417;SDS011;10368;51.436;6.774;2024-03-08T07:36:06;42.47;;;24.43;;
20417;SDS011;10368;51.436;6.774;2024-03-08T07:38:34;37.17;;;23.33;;
20417;SDS011;10368;51.436;6.774;2024-03-08T07:41:01;50.77;;;27.80;;
20417;SDS011;10368;51.436;6.774;2024-03-08T07:43:31;36.93;;;23.93;;
20417;SDS011;10368;51.436;6.774;2024-03-08T07:45:59;40.63;;;23.87;;
20417;SDS011;10368;51.436;6.774;2024-03-08T07:48:26;39.27;;;25.23;;
20417;SDS011;10368;51.436;6.774;2024-03-08T07:50:53;43.67;;;25.50;;
20417;SDS011;10368;51.436;6.774;2024-03-08T07:53:20;39.57;;;24.70;;
20417;SDS011;10368;51.436;6.774;2024-03-08T07:55:47;41.40;;;25.60;;
20417;SDS011;10368;51.436;6.774;2024-03-08T07:58:14;39.30;;;24.57;;
20417;SDS011;10368;51.436;6.774;2024-03-08T08:00:41;45.57;;;25.57;;
20417;SDS011;10368;51.436;6.774;2024-03-08T08:03:09;43.67;;;25.80;;
20417;SDS011;10368;51.436;6.774;2024-03-08T08:05:36;38.67;;;23.87;;
20417;SDS011;10368;51.436;6.774;2024-03-08T08:08:05;36.67;;;23.00;;
20417;SDS011;10368;51.436;6.774;2024-03-08T08:10:33;45.53;;;25.43;;
20417;SDS011;10368;51.436;6.774;2024-03-08T08:13:00;41.50;;;24.37;;
20417;SDS011;10368;51.436;6.774;2024-03-08T08:15:30;45.80;;;23.93;;
20417;SDS011;10368;51.436;6.774;2024-03-08T08:17:57;36.83;;;23.40;;
20417;SDS011;10368;51.436;6.774;2024-03-08T08:20:24;43.00;;;22.87;;
20417;SDS011;10368;51.436;6.774;2024-03-08T08:22:52;41.67;;;23.50;;
20417;SDS011;10368;51.436;6.774;2024-03-08T08:25:20;38.27;;;23.97;;
20417;SDS011;10368;51.436;6.774;2024-03-08T08:27:50;30.93;;;22.00;;
20417;SDS011;10368;51.436;6.774;2024-03-08T08:30:19;41.87;;;22.73;;
20417;SDS011;10368;51.436;6.774;2024-03-08T08:32:46;37.10;;;22.37;;
20417;SDS011;10368;51.436;6.774;2024-03-08T08:35:15;42.13;;;23.77;;
20417;SDS011;10368;51.436;6.774;2024-03-08T08:37:42;35.80;;;22.80;;
20417;SDS011;10368;51.436;6.774;2024-03-08T08:40:10;41.03;;;23.27;;
20417;SDS011;10368;51.436;6.774;2024-03-08T08:42:41;32.33;;;21.57;;
20417;SDS011;10368;51.436;6.774;2024-03-08T08:45:08;33.87;;;22.30;;
20417;SDS011;10368;51.436;6.774;2024-03-08T08:47:43;38.53;;;23.83;;
20417;SDS011;10368;51.436;6.774;2024-03-08T08:50:12;34.50;;;23.80;;
20417;SDS011;10368;51.436;6.774;2024-03-08T08:52:39;36.17;;;22.30;;
20417;SDS011;10368;51.436;6.774;2024-03-08T08:55:10;37.17;;;23.07;;
20417;SDS011;10368;51.436;6.774;2024-03-08T08:57:41;33.80;;;23.30;;
20417;SDS011;10368;51.436;6.774;2024-03-08T09:00:12;36.13;;;20.67;;
20417;SDS011;10368;51.436;6.774;2024-03-08T09:02:42;32.93;;;20.97;;
20417;SDS011;10368;51.436;6.774;2024-03-08T09:05:09;28.00;;;20.07;;
20417;SDS011;10368;51.436;6.774;2024-03-08T09:07:38;31.53;;;19.60;;
20417;SDS011;10368;51.436;6.774;2024-03-08T09:10:06;25.07;;;18.57;;
20417;SDS011;10368;51.436;6.774;2024-03-08T09:12:43;29.07;;;19.40;;
20417;SDS011;10368;51.436;6.774;2024-03-08T09:15:10;26.27;;;19.60;;
20417;SDS011;10368;51.436;6.774;2024-03-08T09:17:38;27.30;;;19.07;;
20417;SDS011;10368;51.436;6.774;2024-03-08T09:20:09;31.77;;;20.40;;
20417;SDS011;10368;51.436;6.774;2024-03-08T09:22:43;29.80;;;20.00;;
20417;SDS011;10368;51.436;6.774;2024-03-08T09:25:10;31.00;;;22.10;;
20417;SDS011;10368;51.436;6.774;2024-03-08T09:27:37;37.67;;;22.10;;
20417;SDS011;10368;51.436;6.774;2024-03-08T09:30:06;28.87;;;20.80;;
20417;SDS011;10368;51.436;6.774;2024-03-08T09:32:37;29.80;;;19.43;;
20417;SDS011;10368;51.436;6.774;2024-03-08T09:35:04;28.70;;;20.37;;
20417;SDS011;10368;51.436;6.774;2024-03-08T09:37:34;27.90;;;20.30;;
20417;SDS011;10368;51.436;6.774;2024-03-08T09:40:01;29.67;;;19.63;;
20417;SDS011;10368;51.436;6.774;2024-03-08T09:42:31;26.83;;;20.37;;
20417;SDS011;10368;51.436;6.774;2024-03-08T09:44:58;29.33;;;20.67;;
20417;SDS011;10368;51.436;6.774;2024-03-08T09:47:25;28.07;;;20.00;;
20417;SDS011;10368;51.436;6.774;2024-03-08T09:50:00;28.20;;;19.67;;
20417;SDS011;10368;51.436;6.774;2024-03-08T09:52:27;26.60;;;20.33;;
20417;SDS011;10368;51.436;6.774;2024-03-08T09:54:57;28.27;;;19.67;;
20417;SDS011;10368;51.436;6.774;2024-03-08T09:57:25;34.90;;;21.87;;
20417;SDS011;10368;51.436;6.774;2024-03-08T09:59:52;31.20;;;19.60;;
20417;SDS011;10368;51.436;6.774;2024-03-08T10:02:19;28.33;;;20.43;;
20417;SDS011;10368;51.436;6.774;2024-03-08T10:04:47;26.33;;;20.33;;
20417;SDS011;10368;51.436;6.774;2024-03-08T10:07:14;33.10;;;20.23;;
20417;SDS011;10368;51.436;6.774;2024-03-08T10:09:42;27.83;;;21.03;;
20417;SDS011;10368;51.436;6.774;2024-03-08T10:12:16;32.70;;;20.27;;
20417;SDS011;10368;51.436;6.774;2024-03-08T10:14:45;25.77;;;18.43;;
20417;SDS011;10368;51.436;6.774;2024-03-08T10:17:12;26.03;;;17.37;;
20417;SDS011;10368;51.436;6.774;2024-03-08T10:19:41;23.83;;;18.50;;
20417;SDS011;10368;51.436;6.774;2024-03-08T10:22:16;27.23;;;18.27;;
20417;SDS011;10368;51.436;6.774;2024-03-08T10:24:47;26.33;;;18.50;;
20417;SDS011;10368;51.436;6.774;2024-03-08T10:27:18;22.17;;;17.47;;
20417;SDS011;10368;51.436;6.774;2024-03-08T10:29:48;20.57;;;16.40;;
20417;SDS011;10368;51.436;6.774;2024-03-08T10:32:18;22.93;;;17.33;;
20417;SDS011;10368;51.436;6.774;2024-03-08T10:34:47;25.90;;;18.27;;
20417;SDS011;10368;51.436;6.774;2024-03-08T10:37:16;21.47;;;16.93;;
20417;SDS011;10368;51.436;6.774;2024-03-08T10:40:10;24.73;;;18.07;;
20417;SDS011;10368;51.436;6.774;2024-03-08T10:42:52;25.40;;;18.17;;
20417;SDS011;10368;51.436;6.774;2024-03-08T10:50:54;20.93;;;16.70;;
20417;SDS011;10368;51.436;6.774;2024-03-08T10:53:23;25.83;;;19.30;;
20417;SDS011;10368;51.436;6.774;2024-03-08T10:55:53;18.63;;;15.93;;
20417;SDS011;10368;51.436;6.774;2024-03-08T10:58:21;20.33;;;16.37;;
20417;SDS011;10368;51.436;6.774;2024-03-08T11:00:52;23.40;;;17.37;;
20417;SDS011;10368;51.436;6.774;2024-03-08T11:06:07;20.67;;;15.23;;
20417;SDS011;10368;51.436;6.774;2024-03-08T11:08:36;21.63;;;15.87;;
20417;SDS011;10368;51.436;6.774;2024-03-08T11:11:03;18.40;;;16.33;;
20417;SDS011;10368;51.436;6.774;2024-03-08T11:16:07;18.23;;;15.15;;
20417;SDS011;10368;51.436;6.774;2024-03-08T11:18:38;17.52;;;15.65;;
20417;SDS011;10368;51.436;6.774;2024-03-08T11:21:09;19.10;;;16.35;;
20417;SDS011;10368;51.436;6.774;2024-03-08T11:23:39;15.80;;;14.20;;
20417;SDS011;10368;51.436;6.774;2024-03-08T11:26:19;15.50;;;13.98;;
20417;SDS011;10368;51.436;6.774;2024-03-08T11:28:47;15.52;;;13.93;;
20417;SDS011;10368;51.436;6.774;2024-03-08T11:31:24;15.73;;;14.23;;
20417;SDS011;10368;51.436;6.774;2024-03-08T11:33:53;15.93;;;14.43;;
20417;SDS011;10368;51.436;6.774;2024-03-08T11:36:21;15.77;;;14.27;;
20417;SDS011;10368;51.436;6.774;2024-03-08T11:38:51;22.02;;;16.23;;
20417;SDS011;10368;51.436;6.774;2024-03-08T11:41:20;19.42;;;17.30;;
20417;SDS011;10368;51.436;6.774;2024-03-08T11:43:50;17.67;;;16.15;;
20417;SDS011;10368;51.436;6.774;2024-03-08T11:46:31;19.20;;;17.40;;
20417;SDS011;10368;51.436;6.774;2024-03-08T11:48:59;20.00;;;18.08;;
20417;SDS011;10368;51.436;6.774;2024-03-08T11:51:26;20.73;;;18.58;;
20417;SDS011;10368;51.436;6.774;2024-03-08T11:53:53;21.80;;;19.58;;
20417;SDS011;10368;51.436;6.774;2024-03-08T11:56:24;22.27;;;20.15;;
20417;SDS011;10368;51.436;6.774;2024-03-08T11:58:54;21.60;;;19.45;;
20417;SDS011;10368;51.436;6.774;2024-03-08T12:01:24;20.50;;;18.60;;
20417;SDS011;10368;51.436;6.774;2024-03-08T12:03:55;21.38;;;19.40;;
20417;SDS011;10368;51.436;6.774;2024-03-08T12:06:26;21.02;;;19.02;;
20417;SDS011;10368;51.436;6.774;2024-03-08T12:09:02;20.77;;;18.75;;
20417;SDS011;10368;51.436;6.774;2024-03-08T12:11:29;20.80;;;18.33;;
20417;SDS011;10368;51.436;6.774;2024-03-08T12:14:00;20.95;;;18.92;;
20417;SDS011;10368;51.436;6.774;2024-03-08T12:16:28;20.10;;;18.20;;
20417;SDS011;10368;51.436;6.774;2024-03-08T12:18:55;19.95;;;18.10;;
20417;SDS011;10368;51.436;6.774;2024-03-08T12:21:22;21.15;;;19.15;;
20417;SDS011;10368;51.436;6.774;2024-03-08T12:24:10;19.42;;;17.40;;
20417;SDS011;10368;51.436;6.774;2024-03-08T12:26:38;18.88;;;17.05;;
20417;SDS011;10368;51.436;6.774;2024-03-08T12:31:47;20.98;;;19.08;;
20417;SDS011;10368;51.436;6.774;2024-03-08T12:34:19;20.77;;;18.70;;
20417;SDS011;10368;51.436;6.774;2024-03-08T12:36:46;25.77;;;20.17;;
20417;SDS011;10368;51.436;6.774;2024-03-08T12:39:18;18.05;;;16.35;;
20417;SDS011;10368;51.436;6.774;2024-03-08T12:41:54;21.52;;;17.75;;
20417;SDS011;10368;51.436;6.774;2024-03-08T12:44:23;17.77;;;16.15;;
20417;SDS011;10368;51.436;6.774;2024-03-08T12:46:51;18.13;;;16.35;;
20417;SDS011;10368;51.436;6.774;2024-03-08T12:49:20;19.55;;;17.77;;
20417;SDS011;10368;51.436;6.774;2024-03-08T12:51:50;19.38;;;17.58;;
20417;SDS011;10368;51.436;6.774;2024-03-08T12:54:19;19.58;;;17.85;;
20417;SDS011;10368;51.436;6.774;2024-03-08T12:56:53;17.50;;;15.90;;
20417;SDS011;10368;51.436;6.774;2024-03-08T12:59:26;18.33;;;16.67;;
20417;SDS011;10368;51.436;6.774;2024-03-08T13:01:53;17.73;;;16.15;;
20417;SDS011;10368;51.436;6.774;2024-03-08T13:04:21;18.52;;;16.50;;
20417;SDS011;10368;51.436;6.774;2024-03-08T13:06:49;15.93;;;14.63;;
20417;SDS011;10368;51.436;6.774;2024-03-08T13:09:20;16.27;;;14.77;;
20417;SDS011;10368;51.436;6.774;2024-03-08T13:11:48;16.20;;;14.70;;
20417;SDS011;10368;51.436;6.774;2024-03-08T13:14:15;15.02;;;13.73;;
20417;SDS011;10368;51.436;6.774;2024-03-08T13:16:42;14.60;;;13.18;;
20417;SDS011;10368;51.436;6.774;2024-03-08T13:19:15;14.85;;;13.45;;
20417;SDS011;10368;51.436;6.774;2024-03-08T13:21:42;10.50;;;9.48;;
20417;SDS011;10368;51.436;6.774;2024-03-08T13:24:09;8.70;;;8.00;;
20417;SDS011;10368;51.436;6.774;2024-03-08T13:26:38;8.18;;;7.57;;
20417;SDS011;10368;51.436;6.774;2024-03-08T13:29:05;8.82;;;8.02;;
20417;SDS011;10368;51.436;6.774;2024-03-08T13:31:33;8.52;;;7.82;;
20417;SDS011;10368;51.436;6.774;2024-03-08T13:34:02;8.63;;;7.93;;
20417;SDS011;10368;51.436;6.774;2024-03-08T13:36:31;9.60;;;8.70;;
20417;SDS011;10368;51.436;6.774;2024-03-08T13:39:05;8.82;;;8.02;;
20417;SDS011;10368;51.436;6.774;2024-03-08T13:41:41;9.27;;;8.48;;
20417;SDS011;10368;51.436;6.774;2024-03-08T13:44:12;8.30;;;7.60;;
20417;SDS011;10368;51.436;6.774;2024-03-08T13:46:39;9.23;;;8.43;;
20417;SDS011;10368;51.436;6.774;2024-03-08T13:49:06;7.68;;;7.07;;
20417;SDS011;10368;51.436;6.774;2024-03-08T13:51:34;8.20;;;7.50;;
20417;SDS011;10368;51.436;6.774;2024-03-08T13:54:02;9.25;;;8.45;;
20417;SDS011;10368;51.436;6.774;2024-03-08T13:56:33;8.57;;;7.88;;
20417;SDS011;10368;51.436;6.774;2024-03-08T13:59:00;7.40;;;6.82;;
20417;SDS011;10368;51.436;6.774;2024-03-08T14:01:28;7.90;;;7.20;;
20417;SDS011;10368;51.436;6.774;2024-03-08T14:03:56;7.53;;;6.82;;
20417;SDS011;10368;51.436;6.774;2024-03-08T14:06:23;12.57;;;8.18;;
20417;SDS011;10368;51.436;6.774;2024-03-08T14:08:51;7.88;;;7.18;;
20417;SDS011;10368;51.436;6.774;2024-03-08T14:11:20;8.75;;;7.13;;
20417;SDS011;10368;51.436;6.774;2024-03-08T14:13:47;8.30;;;7.50;;
20417;SDS011;10368;51.436;6.774;2024-03-08T14:16:14;8.73;;;6.88;;
20417;SDS011;10368;51.436;6.774;2024-03-08T14:18:44;8.65;;;7.88;;
20417;SDS011;10368;51.436;6.774;2024-03-08T14:21:11;8.18;;;7.47;;
20417;SDS011;10368;51.436;6.774;2024-03-08T14:23:40;8.90;;;8.10;;
20417;SDS011;10368;51.436;6.774;2024-03-08T14:26:09;8.48;;;7.63;;
20417;SDS011;10368;51.436;6.774;2024-03-08T14:28:37;7.93;;;7.22;;
20417;SDS011;10368;51.436;6.774;2024-03-08T14:31:05;8.13;;;7.43;;
20417;SDS011;10368;51.436;6.774;2024-03-08T14:33:37;8.45;;;7.72;;
20417;SDS011;10368;51.436;6.774;2024-03-08T14:36:05;7.75;;;7.05;;
20417;SDS011;10368;51.436;6.774;2024-03-08T14:38:33;7.07;;;6.47;;
20417;SDS011;10368;51.436;6.774;2024-03-08T14:41:01;8.43;;;7.68;;
20417;SDS011;10368;51.436;6.774;2024-03-08T14:43:30;8.55;;;7.75;;
20417;SDS011;10368;51.436;6.774;2024-03-08T14:45:58;8.32;;;7.60;;
20417;SDS011;10368;51.436;6.774;2024-03-08T14:48:25;9.38;;;8.30;;
20417;SDS011;10368;51.436;6.774;2024-03-08T14:50:53;8.90;;;8.15;;